Etusivu
METAR-TAF:

METAR-TAF

Lentoasemat :

Düsseldorfin lentoasema

Düsseldorf, Saksa

Leveyspiiri: 51-18N, Pituuspiiri: 006-46E, korkeus merenpinnasta: 45 m

Tämänhetkinen sää

Tämä raportti tehtiin 15 minuuttia sitten, kello 20.20 UTC
Tuuli 5 kn pohjoisesta/koillisesta
Lämpötila 21°C
Kosteus 56%
Ilmanpaine 1022 hPa
Näkyvyys 10 km tai enemmän
ei pilviä alle 1500 m:ssä eikä cumulonimbus-pilviä

METAR: EDDL 232020Z 02005KT CAVOK 21/12 Q1022 NOSIG

Aika: 22:35 (20:35 UTC)

Sääennuste

Tämä raportti tehtiin 3 tuntia ja 35 minuuttia sitten, kello 17.00 UTC
Ennuste voimassa 23. päivästä klo 18 UTC - 24. päivään klo 24 UTC
Tuuli 3 kn eri suunnista
Näkyvyys 10 km tai enemmän
ei pilviä alle 1500 m:ssä eikä cumulonimbus-pilviä
Ajoittain
24. päivästä klo 09 UTC - 24. päivään klo 17 UTC
Tuuli 7 kn idästä

TAF: EDDL 231700Z 2318/2424 VRB03KT CAVOK TEMPO 2409/2417 08007KT

Säähavainnot ja -ennusteet yli 4000 lentoasemalta (METAR- ja TAF-raportit).

Käytössä olevat sääasemat on merkitty karttaan keltaisilla ja punaisilla pisteillä.

Aseta hiiri pisteen päälle nähdäksesi sääaseman nimen.

Klikkaa sitten nähdäksesi säähavainnot ja -ennusteet.

Kartan vaihtaminen: klikkaa mustalla rastilla varustettuja vihreitä pisteitä, niin voit zoomata sisään; viivalla varustettua vihreää pistettä, niin voit zoomata ulos tai vihreitä nuolia, niin pääset viereisille kartoille.


METAR-TAF: